sim
Sign-in with your pilot id or email,
or register
Callsign
Passwort

Schedule Details

Flight Number: DLH2642
Departure: Munich Airport (EDDM) at 13:10
Arrival: Antalya Airport (LTAI) at 16:10
Route: Lufthansa Passenger Schedule. Enter filed route here before submitting Pirep.

Weather Information
Getting current METAR information for EDDM 010520Z VRB02KT 0300 R08L/0400N R08R/0400U FG BKN001 03/03 Q1009 NOSIG
Getting current METAR information for LTAI 010450Z 36006KT 9999 FEW030 22/10 Q1006 NOSIG RMK RWY18C 35006KT RWY36R 35006KT RWY18L 35003KT 330V040

Schedule Frequency

Route Map